AMX200 MMAA-MMMX
Flight info
| Callsign | AMX200 |
|---|---|
| Flight time | N/A |
| Altitude | 32000 |
| Route | ALNUS1B ALNUS UT117 ESPOS ESPOS4B |
| Aircraft | B738/M-SDE2E3FGHIRWXY/LB1 |
Departure
| Time | 2026-04-19 22:19 |
|---|---|
| Airport | General Juan N. Álvarez International Airport (MMAA) |
Arrival
| Time | N/A |
|---|---|
| Airport | Mexico City Benito Juárez International Airport (MMMX) |
| Time | Latitude | Longitude | Altitude | Speed | Heading |
|---|---|---|---|---|---|
| 2026-04-19 22:02 | 16.76144 | -99.75556 | 16 ft | 0 kts | 19° |
| 2026-04-19 22:11 | 16.76136 | -99.75558 | 16 ft | 4 kts | 20° |
| 2026-04-19 22:11 | 16.76110 | -99.75569 | 16 ft | 4 kts | 23° |
| 2026-04-19 22:12 | 16.76086 | -99.75581 | 16 ft | 4 kts | 30° |
| 2026-04-19 22:12 | 16.76064 | -99.75596 | 16 ft | 4 kts | 50° |
| 2026-04-19 22:12 | 16.76055 | -99.75616 | 17 ft | 2 kts | 108° |
| 2026-04-19 22:12 | 16.76056 | -99.75618 | 16 ft | 1 kts | 109° |
| 2026-04-19 22:14 | 16.76051 | -99.75603 | 16 ft | 6 kts | 109° |
| 2026-04-19 22:14 | 16.76034 | -99.75552 | 16 ft | 8 kts | 109° |
| 2026-04-19 22:15 | 16.76017 | -99.75495 | 18 ft | 10 kts | 107° |
| 2026-04-19 22:15 | 16.75968 | -99.75414 | 18 ft | 17 kts | 133° |
| 2026-04-19 22:15 | 16.75895 | -99.75317 | 17 ft | 17 kts | 114° |
| 2026-04-19 22:15 | 16.75845 | -99.75176 | 17 ft | 25 kts | 108° |
| 2026-04-19 22:16 | 16.75786 | -99.74986 | 16 ft | 28 kts | 108° |
| 2026-04-19 22:16 | 16.75725 | -99.74791 | 17 ft | 31 kts | 108° |
| 2026-04-19 22:16 | 16.75652 | -99.74558 | 16 ft | 37 kts | 108° |
| 2026-04-19 22:16 | 16.75568 | -99.74293 | 19 ft | 39 kts | 108° |
| 2026-04-19 22:17 | 16.75487 | -99.74034 | 16 ft | 36 kts | 108° |
| 2026-04-19 22:17 | 16.75419 | -99.73814 | 17 ft | 30 kts | 108° |
| 2026-04-19 22:17 | 16.75356 | -99.73613 | 16 ft | 28 kts | 108° |
| 2026-04-19 22:17 | 16.75296 | -99.73423 | 18 ft | 27 kts | 108° |
| 2026-04-19 22:18 | 16.75233 | -99.73330 | 16 ft | 15 kts | 174° |
| 2026-04-19 22:18 | 16.75136 | -99.73355 | 19 ft | 14 kts | 198° |
| 2026-04-19 22:18 | 16.75107 | -99.73447 | 17 ft | 20 kts | 283° |
| 2026-04-19 22:18 | 16.75226 | -99.73832 | 16 ft | 99 kts | 288° |
| 2026-04-19 22:19 | 16.75521 | -99.74787 | 48 ft | 172 kts | 287° |
| 2026-04-19 22:19 | 16.75938 | -99.76100 | 638 ft | 204 kts | 287° |
| 2026-04-19 22:19 | 16.76388 | -99.77522 | 1638 ft | 205 kts | 287° |
| 2026-04-19 22:19 | 16.76852 | -99.78931 | 2591 ft | 213 kts | 289° |
| 2026-04-19 22:20 | 16.77338 | -99.80481 | 2830 ft | 238 kts | 287° |
| 2026-04-19 22:20 | 16.77860 | -99.82170 | 3275 ft | 253 kts | 288° |
| 2026-04-19 22:20 | 16.78432 | -99.83994 | 3717 ft | 271 kts | 288° |
| 2026-04-19 22:20 | 16.79039 | -99.85882 | 4527 ft | 276 kts | 291° |
| 2026-04-19 22:21 | 16.80105 | -99.87547 | 5343 ft | 281 kts | 319° |
| 2026-04-19 22:21 | 16.81808 | -99.88536 | 5795 ft | 282 kts | 343° |
| 2026-04-19 22:21 | 16.83713 | -99.89076 | 5976 ft | 285 kts | 346° |
| 2026-04-19 22:21 | 16.85646 | -99.89589 | 6104 ft | 289 kts | 346° |
| 2026-04-19 22:22 | 16.87604 | -99.90113 | 6934 ft | 290 kts | 346° |
| 2026-04-19 22:22 | 16.89557 | -99.90645 | 7841 ft | 291 kts | 346° |
| 2026-04-19 22:22 | 16.91520 | -99.91188 | 8624 ft | 295 kts | 346° |
| 2026-04-19 22:22 | 16.93516 | -99.91745 | 9354 ft | 299 kts | 346° |
| 2026-04-19 22:23 | 16.95572 | -99.92005 | 10104 ft | 299 kts | 8° |
| 2026-04-19 22:23 | 16.97531 | -99.91349 | 10920 ft | 296 kts | 29° |
| 2026-04-19 22:23 | 16.99310 | -99.90267 | 11768 ft | 296 kts | 32° |
| 2026-04-19 22:23 | 17.01069 | -99.89138 | 12571 ft | 297 kts | 32° |
| 2026-04-19 22:24 | 17.02839 | -99.87996 | 13290 ft | 301 kts | 32° |
| 2026-04-19 22:24 | 17.04655 | -99.86829 | 13703 ft | 317 kts | 32° |
| 2026-04-19 22:24 | 17.06576 | -99.85601 | 13870 ft | 337 kts | 32° |
| 2026-04-19 22:24 | 17.08617 | -99.84307 | 14328 ft | 347 kts | 32° |
| 2026-04-19 22:25 | 17.10542 | -99.83091 | 14917 ft | 351 kts | 32° |
| 2026-04-19 22:25 | 17.12638 | -99.81768 | 15581 ft | 353 kts | 32° |
| 2026-04-19 22:25 | 17.14754 | -99.80433 | 16199 ft | 357 kts | 32° |
| 2026-04-19 22:25 | 17.16894 | -99.79084 | 16775 ft | 361 kts | 32° |
| 2026-04-19 22:26 | 17.19058 | -99.77718 | 17362 ft | 365 kts | 32° |
| 2026-04-19 22:26 | 17.21364 | -99.76596 | 17917 ft | 371 kts | 15° |
| 2026-04-19 22:26 | 17.23946 | -99.76309 | 18482 ft | 377 kts | 1° |
| 2026-04-19 22:26 | 17.26581 | -99.76358 | 19007 ft | 381 kts | 360° |
| 2026-04-19 22:27 | 17.29247 | -99.76449 | 19526 ft | 385 kts | 359° |
| 2026-04-19 22:27 | 17.31935 | -99.76544 | 20057 ft | 388 kts | 359° |
| 2026-04-19 22:27 | 17.34645 | -99.76631 | 20572 ft | 391 kts | 359° |
| 2026-04-19 22:27 | 17.37379 | -99.76706 | 21047 ft | 395 kts | 359° |
| 2026-04-19 22:28 | 17.40137 | -99.76774 | 21512 ft | 398 kts | 359° |
| 2026-04-19 22:28 | 17.42917 | -99.76837 | 21985 ft | 401 kts | 359° |
| 2026-04-19 22:28 | 17.45718 | -99.76898 | 22422 ft | 404 kts | 359° |
| 2026-04-19 22:28 | 17.48541 | -99.76960 | 22854 ft | 407 kts | 359° |
| 2026-04-19 22:29 | 17.51380 | -99.77022 | 23262 ft | 411 kts | 359° |
| 2026-04-19 22:29 | 17.54248 | -99.77085 | 23675 ft | 414 kts | 359° |
| 2026-04-19 22:29 | 17.57137 | -99.77148 | 24061 ft | 417 kts | 359° |
| 2026-04-19 22:29 | 17.60050 | -99.77212 | 24449 ft | 420 kts | 359° |
| 2026-04-19 22:30 | 17.62980 | -99.77275 | 24847 ft | 422 kts | 358° |
| 2026-04-19 22:30 | 17.64932 | -99.77317 | 25087 ft | 424 kts | 358° |
| 2026-04-19 22:30 | 17.68893 | -99.77403 | 25593 ft | 428 kts | 358° |
| 2026-04-19 22:30 | 17.70869 | -99.77445 | 25846 ft | 429 kts | 358° |
| 2026-04-19 22:31 | 17.73861 | -99.77510 | 26213 ft | 431 kts | 358° |
| 2026-04-19 22:31 | 17.76870 | -99.77574 | 26585 ft | 433 kts | 358° |
| 2026-04-19 22:31 | 17.79882 | -99.77657 | 27038 ft | 433 kts | 356° |
| 2026-04-19 22:31 | 17.82884 | -99.77798 | 27556 ft | 431 kts | 355° |
| 2026-04-19 22:32 | 17.85871 | -99.77966 | 28058 ft | 429 kts | 355° |
| 2026-04-19 22:32 | 17.88848 | -99.78141 | 28506 ft | 429 kts | 355° |
| 2026-04-19 22:32 | 17.91828 | -99.78316 | 28973 ft | 429 kts | 355° |
| 2026-04-19 22:32 | 17.94809 | -99.78486 | 29327 ft | 431 kts | 355° |
| 2026-04-19 22:33 | 17.97845 | -99.78655 | 29371 ft | 441 kts | 354° |
| 2026-04-19 22:33 | 18.04096 | -99.78996 | 29521 ft | 458 kts | 355° |
| 2026-04-19 22:34 | 18.10547 | -99.79340 | 29657 ft | 471 kts | 355° |
| 2026-04-19 22:34 | 18.13841 | -99.79515 | 29762 ft | 477 kts | 355° |
| 2026-04-19 22:34 | 18.17172 | -99.79693 | 29881 ft | 481 kts | 354° |
| 2026-04-19 22:34 | 18.20520 | -99.79872 | 29999 ft | 480 kts | 354° |
| 2026-04-19 22:35 | 18.23846 | -99.80049 | 30032 ft | 478 kts | 354° |
| 2026-04-19 22:35 | 18.30533 | -99.80408 | 30040 ft | 483 kts | 354° |
| 2026-04-19 22:36 | 18.37257 | -99.80771 | 30045 ft | 485 kts | 354° |
| 2026-04-19 22:36 | 18.43989 | -99.81132 | 30049 ft | 485 kts | 354° |
| 2026-04-19 22:37 | 18.50730 | -99.81495 | 30064 ft | 484 kts | 355° |
| 2026-04-19 22:37 | 18.57456 | -99.81852 | 30063 ft | 482 kts | 354° |
| 2026-04-19 22:38 | 18.58538 | -99.81915 | 30064 ft | 481 kts | 354° |